Time;durP1;ratioP1;P1;durP2;ratioP2;P2;SDS_P1;SDS_P2;PMS_P1;PMS_P2;Temp;Humidity;BMP_temperature;BMP_pressure;BME280_temperature;BME280_humidity;BME280_pressure;Samples;Min_cycle;Max_cycle;Signal;HPM_P1;HPM_P2
2023/05/09 00:00:11;;;;;;;5.60;3.42;;;;;;;;;;5050857;28;20036;-68
2023/05/09 00:02:40;;;;;;;5.22;3.65;;;;;;;;;;5044705;28;20024;-68
2023/05/09 00:05:08;;;;;;;5.38;3.78;;;;;;;;;;5051794;28;20043;-69
2023/05/09 00:07:34;;;;;;;5.22;3.67;;;;;;;;;;5050281;28;20065;-68
2023/05/09 00:10:00;;;;;;;9.60;3.70;;;;;;;;;;5051738;28;20083;-68
2023/05/09 00:12:27;;;;;;;4.65;3.35;;;;;;;;;;5050937;28;20029;-69
2023/05/09 00:14:55;;;;;;;7.47;4.03;;;;;;;;;;5051296;28;20033;-68
2023/05/09 00:17:22;;;;;;;5.30;3.83;;;;;;;;;;5050912;28;20037;-68
2023/05/09 00:19:49;;;;;;;5.22;3.60;;;;;;;;;;5051347;28;20079;-69
2023/05/09 00:22:21;;;;;;;4.82;3.65;;;;;;;;;;5051311;28;20044;-69
2023/05/09 00:24:48;;;;;;;4.55;3.53;;;;;;;;;;5051252;28;20130;-69
2023/05/09 00:27:14;;;;;;;7.72;3.90;;;;;;;;;;5049431;28;20068;-69
2023/05/09 00:29:39;;;;;;;6.50;3.85;;;;;;;;;;5050504;28;20510;-69
2023/05/09 00:32:05;;;;;;;5.47;3.33;;;;;;;;;;5051438;28;20029;-69
2023/05/09 00:34:32;;;;;;;8.15;4.20;;;;;;;;;;5050465;28;20441;-69
2023/05/09 00:36:58;;;;;;;4.72;3.47;;;;;;;;;;5046395;28;20021;-69
2023/05/09 00:39:23;;;;;;;4.15;3.40;;;;;;;;;;5029808;28;20083;-69
2023/05/09 00:41:50;;;;;;;6.72;4.07;;;;;;;;;;5041436;28;20401;-69
2023/05/09 00:44:16;;;;;;;5.15;4.03;;;;;;;;;;5049942;28;20029;-69
2023/05/09 00:46:42;;;;;;;6.35;4.10;;;;;;;;;;5049791;28;20505;-70
2023/05/09 00:49:09;;;;;;;5.38;3.85;;;;;;;;;;5049650;28;20084;-67
2023/05/09 00:51:36;;;;;;;7.40;3.80;;;;;;;;;;5050052;28;20025;-67
2023/05/09 00:54:02;;;;;;;7.18;4.10;;;;;;;;;;5050307;28;20475;-68
2023/05/09 00:56:27;;;;;;;6.05;4.10;;;;;;;;;;5044157;28;20036;-68
2023/05/09 00:58:54;;;;;;;5.93;3.95;;;;;;;;;;5029283;28;20068;-69
2023/05/09 01:01:20;;;;;;;7.55;4.53;;;;;;;;;;5036050;28;20024;-69
2023/05/09 01:03:46;;;;;;;6.22;4.00;;;;;;;;;;5043160;28;20411;-68
2023/05/09 01:06:30;;;;;;;9.57;3.70;;;;;;;;;;5047430;28;20375;-68
2023/05/09 01:09:28;;;;;;;7.35;4.30;;;;;;;;;;5050718;28;20057;-68
2023/05/09 01:12:15;;;;;;;7.18;4.55;;;;;;;;;;5050962;28;20076;-68
2023/05/09 01:14:53;;;;;;;6.38;4.30;;;;;;;;;;5051097;28;20029;-68
2023/05/09 01:17:25;;;;;;;6.68;4.35;;;;;;;;;;5066190;28;20487;-68
2023/05/09 01:19:59;;;;;;;6.97;4.47;;;;;;;;;;5052076;28;20040;-68
2023/05/09 01:22:29;;;;;;;6.05;4.55;;;;;;;;;;5053140;28;20029;-68
2023/05/09 01:25:17;;;;;;;5.80;4.60;;;;;;;;;;5046282;28;20040;-68
2023/05/09 01:28:20;;;;;;;5.88;4.30;;;;;;;;;;5048869;28;20487;-68
2023/05/09 01:30:50;;;;;;;7.07;5.25;;;;;;;;;;5053274;28;20037;-68
2023/05/09 01:33:18;;;;;;;6.47;5.22;;;;;;;;;;5054565;28;20033;-68
2023/05/09 01:35:52;;;;;;;6.82;5.05;;;;;;;;;;5054438;28;20067;-68
2023/05/09 01:38:22;;;;;;;7.28;4.93;;;;;;;;;;5033585;28;20029;-67
2023/05/09 01:40:53;;;;;;;8.18;5.10;;;;;;;;;;5041187;28;20049;-67
2023/05/09 01:43:22;;;;;;;6.53;5.18;;;;;;;;;;5053436;28;20039;-68
2023/05/09 01:45:50;;;;;;;6.85;5.20;;;;;;;;;;5036390;28;20025;-68
2023/05/09 01:48:16;;;;;;;6.55;5.15;;;;;;;;;;5034285;28;20049;-68
2023/05/09 01:50:44;;;;;;;8.32;5.80;;;;;;;;;;5033013;28;20116;-68
2023/05/09 01:53:11;;;;;;;6.95;4.80;;;;;;;;;;5032612;28;20114;-67
2023/05/09 01:55:39;;;;;;;8.50;5.57;;;;;;;;;;5034099;28;20140;-67
2023/05/09 01:58:06;;;;;;;8.93;5.95;;;;;;;;;;5049736;28;20025;-67
2023/05/09 02:00:33;;;;;;;7.63;5.03;;;;;;;;;;5054040;28;20035;-67
2023/05/09 02:03:01;;;;;;;6.85;4.65;;;;;;;;;;5053893;28;20033;-67
2023/05/09 02:05:28;;;;;;;5.80;4.90;;;;;;;;;;5052737;28;20025;-67
2023/05/09 02:07:59;;;;;;;5.90;4.55;;;;;;;;;;5051918;28;20036;-67
2023/05/09 02:10:28;;;;;;;8.98;4.72;;;;;;;;;;5053777;28;20037;-67
2023/05/09 02:12:55;;;;;;;6.93;4.60;;;;;;;;;;5053650;28;20053;-67
2023/05/09 02:15:21;;;;;;;6.57;4.88;;;;;;;;;;5053593;28;20033;-68
2023/05/09 02:17:47;;;;;;;7.53;4.95;;;;;;;;;;5051574;28;20033;-68
2023/05/09 02:20:13;;;;;;;6.45;5.28;;;;;;;;;;5053331;28;20043;-68
2023/05/09 02:22:41;;;;;;;5.15;4.40;;;;;;;;;;5053609;28;20521;-68
2023/05/09 02:25:09;;;;;;;4.72;4.20;;;;;;;;;;5052175;28;20036;-68
2023/05/09 02:27:37;;;;;;;4.97;4.32;;;;;;;;;;5052655;28;20025;-68
2023/05/09 02:30:10;;;;;;;6.22;5.05;;;;;;;;;;5052577;28;20483;-68
2023/05/09 02:32:38;;;;;;;5.15;4.10;;;;;;;;;;5053068;28;20036;-67
2023/05/09 02:35:06;;;;;;;5.47;4.18;;;;;;;;;;5052060;28;20032;-68
2023/05/09 02:37:32;;;;;;;5.25;4.47;;;;;;;;;;5052654;28;20027;-68
2023/05/09 02:39:59;;;;;;;4.85;4.28;;;;;;;;;;5053219;28;20056;-68
2023/05/09 02:42:28;;;;;;;5.85;4.38;;;;;;;;;;5043509;28;20033;-68
2023/05/09 02:44:54;;;;;;;6.25;4.43;;;;;;;;;;5033210;28;20037;-67
2023/05/09 02:47:21;;;;;;;6.53;4.35;;;;;;;;;;5031410;28;20095;-68
2023/05/09 02:49:47;;;;;;;6.25;4.57;;;;;;;;;;5048021;28;20033;-68
2023/05/09 02:52:13;;;;;;;7.20;5.03;;;;;;;;;;5037491;28;20504;-67
2023/05/09 02:54:39;;;;;;;7.78;5.10;;;;;;;;;;5051302;28;20037;-68
2023/05/09 02:57:05;;;;;;;5.32;4.72;;;;;;;;;;5046781;28;20023;-68
2023/05/09 02:59:31;;;;;;;5.43;4.38;;;;;;;;;;5032786;28;20041;-67
2023/05/09 03:02:00;;;;;;;5.90;4.68;;;;;;;;;;5034892;28;20467;-67
2023/05/09 03:04:26;;;;;;;5.32;4.82;;;;;;;;;;5046786;28;20025;-68
2023/05/09 03:06:52;;;;;;;6.45;4.43;;;;;;;;;;5031128;28;20082;-67
2023/05/09 03:09:18;;;;;;;4.93;4.28;;;;;;;;;;5050852;28;20033;-67
2023/05/09 03:11:44;;;;;;;7.45;4.75;;;;;;;;;;5052421;28;20035;-67
2023/05/09 03:14:11;;;;;;;7.15;5.05;;;;;;;;;;5051186;28;20514;-68
2023/05/09 03:16:37;;;;;;;6.85;5.30;;;;;;;;;;5052223;28;20047;-68
2023/05/09 03:19:07;;;;;;;5.82;5.03;;;;;;;;;;5050687;28;20030;-68
2023/05/09 03:21:33;;;;;;;7.32;5.80;;;;;;;;;;5050934;28;20031;-69
2023/05/09 03:23:58;;;;;;;6.63;5.32;;;;;;;;;;5050935;28;20094;-69
2023/05/09 03:26:25;;;;;;;6.70;5.95;;;;;;;;;;5052236;28;20067;-69
2023/05/09 03:28:52;;;;;;;6.68;5.65;;;;;;;;;;5050096;28;20033;-68
2023/05/09 03:31:18;;;;;;;10.43;6.53;;;;;;;;;;5052149;28;20036;-69
2023/05/09 03:33:44;;;;;;;11.00;7.00;;;;;;;;;;5051951;28;20040;-68
2023/05/09 03:36:10;;;;;;;8.10;7.30;;;;;;;;;;5045153;28;20135;-68
2023/05/09 03:38:37;;;;;;;8.43;7.25;;;;;;;;;;5047067;28;20087;-68
2023/05/09 03:41:03;;;;;;;10.15;7.30;;;;;;;;;;5050590;28;20035;-68
2023/05/09 03:43:31;;;;;;;11.85;7.32;;;;;;;;;;5063758;28;20029;-68
2023/05/09 03:45:56;;;;;;;7.10;6.35;;;;;;;;;;5050434;28;20086;-67
2023/05/09 03:48:35;;;;;;;6.88;6.18;;;;;;;;;;5037291;28;20041;-71
2023/05/09 03:51:01;;;;;;;12.98;7.10;;;;;;;;;;5030016;28;20057;-68
2023/05/09 03:53:29;;;;;;;7.50;6.00;;;;;;;;;;5043210;28;20111;-68
2023/05/09 03:55:55;;;;;;;8.57;5.97;;;;;;;;;;5047954;28;20044;-68
2023/05/09 03:58:22;;;;;;;9.48;6.30;;;;;;;;;;5050350;28;20024;-68
2023/05/09 04:00:48;;;;;;;8.98;6.10;;;;;;;;;;5064687;28;20471;-69
2023/05/09 04:03:19;;;;;;;10.80;6.22;;;;;;;;;;5049654;28;20033;-68
2023/05/09 04:05:47;;;;;;;7.38;6.00;;;;;;;;;;5050009;28;20067;-68
2023/05/09 04:08:23;;;;;;;9.73;6.45;;;;;;;;;;5039063;28;20036;-67
2023/05/09 04:10:51;;;;;;;8.88;6.82;;;;;;;;;;5040877;28;20033;-67
2023/05/09 04:13:17;;;;;;;8.18;6.55;;;;;;;;;;5039016;28;20025;-69
2023/05/09 04:15:43;;;;;;;9.10;6.57;;;;;;;;;;5041855;28;20086;-69
2023/05/09 04:18:08;;;;;;;10.70;6.90;;;;;;;;;;5053639;28;20111;-67
2023/05/09 04:20:34;;;;;;;9.63;7.13;;;;;;;;;;5041537;28;20028;-67
2023/05/09 04:23:00;;;;;;;8.70;6.95;;;;;;;;;;5042256;28;20169;-68
2023/05/09 04:25:28;;;;;;;8.20;6.70;;;;;;;;;;5038367;28;20406;-68
2023/05/09 04:27:54;;;;;;;12.70;8.30;;;;;;;;;;5046434;28;20033;-68
2023/05/09 04:30:20;;;;;;;12.30;6.63;;;;;;;;;;5041011;28;20029;-68
2023/05/09 04:32:47;;;;;;;11.73;7.75;;;;;;;;;;5048753;28;20103;-68
2023/05/09 04:35:13;;;;;;;10.02;7.50;;;;;;;;;;5045494;28;20132;-68
2023/05/09 04:37:42;;;;;;;13.52;9.18;;;;;;;;;;5045712;28;20340;-68
2023/05/09 04:40:10;;;;;;;11.35;7.97;;;;;;;;;;5045101;28;20025;-67
2023/05/09 04:42:44;;;;;;;10.35;7.93;;;;;;;;;;5044446;28;20025;-67
2023/05/09 04:45:10;;;;;;;10.80;7.68;;;;;;;;;;5047978;28;20033;-68
2023/05/09 04:47:37;;;;;;;9.20;7.13;;;;;;;;;;5045884;28;20017;-67
2023/05/09 04:50:03;;;;;;;9.27;7.28;;;;;;;;;;5046972;28;20461;-67
2023/05/09 04:52:28;;;;;;;8.88;6.80;;;;;;;;;;5049469;28;20051;-69
2023/05/09 04:54:54;;;;;;;7.75;6.75;;;;;;;;;;5031134;28;20483;-71
2023/05/09 04:57:23;;;;;;;8.55;6.43;;;;;;;;;;5043794;28;20561;-70
2023/05/09 04:59:54;;;;;;;7.50;6.15;;;;;;;;;;5049512;28;20048;-70
2023/05/09 05:02:21;;;;;;;8.27;6.13;;;;;;;;;;5044962;28;20029;-73
2023/05/09 05:04:47;;;;;;;7.32;6.30;;;;;;;;;;5049598;28;20033;-69
2023/05/09 05:07:14;;;;;;;8.88;7.25;;;;;;;;;;5041067;28;20091;-70
2023/05/09 05:09:40;;;;;;;9.77;7.53;;;;;;;;;;5040291;28;20021;-70
2023/05/09 05:12:07;;;;;;;10.05;7.93;;;;;;;;;;5039953;28;20025;-70
2023/05/09 05:14:34;;;;;;;12.13;8.48;;;;;;;;;;5044165;28;20032;-70
2023/05/09 05:17:01;;;;;;;10.30;8.25;;;;;;;;;;5044211;28;20029;-69
2023/05/09 05:19:27;;;;;;;8.18;6.53;;;;;;;;;;5043988;28;20024;-70
2023/05/09 05:21:54;;;;;;;12.38;8.07;;;;;;;;;;5054236;28;20081;-70
2023/05/09 05:24:19;;;;;;;8.25;6.63;;;;;;;;;;5049800;28;20028;-70
2023/05/09 05:26:46;;;;;;;9.93;6.68;;;;;;;;;;5044386;28;20028;-70
2023/05/09 05:29:11;;;;;;;7.38;5.78;;;;;;;;;;5044210;28;20021;-70
2023/05/09 05:31:37;;;;;;;7.80;6.07;;;;;;;;;;5044043;28;20073;-69
2023/05/09 05:34:03;;;;;;;7.93;6.20;;;;;;;;;;5045628;28;20055;-70
2023/05/09 05:36:31;;;;;;;9.10;6.15;;;;;;;;;;5042729;28;20492;-70
2023/05/09 05:38:57;;;;;;;6.75;5.30;;;;;;;;;;5040442;28;20506;-70
2023/05/09 05:41:23;;;;;;;9.05;5.32;;;;;;;;;;5033652;28;20037;-69
2023/05/09 05:43:50;;;;;;;8.27;6.18;;;;;;;;;;5039517;28;20022;-70
2023/05/09 05:46:16;;;;;;;7.43;6.45;;;;;;;;;;5050378;28;20095;-70
2023/05/09 05:48:42;;;;;;;8.52;6.50;;;;;;;;;;5048122;28;20037;-71
2023/05/09 05:51:07;;;;;;;8.70;7.07;;;;;;;;;;5049140;28;20025;-70
2023/05/09 05:53:34;;;;;;;7.60;6.13;;;;;;;;;;5043602;28;20021;-70
2023/05/09 05:56:00;;;;;;;8.00;6.38;;;;;;;;;;5046469;28;20025;-70
2023/05/09 05:58:26;;;;;;;7.82;6.15;;;;;;;;;;5049605;28;20098;-69
2023/05/09 06:00:53;;;;;;;8.65;6.03;;;;;;;;;;5051285;28;20029;-70
2023/05/09 06:03:19;;;;;;;6.03;5.38;;;;;;;;;;5043559;28;20115;-71
2023/05/09 06:05:50;;;;;;;8.50;5.85;;;;;;;;;;5045381;28;20034;-69
2023/05/09 06:08:16;;;;;;;8.10;6.22;;;;;;;;;;5039428;28;20061;-70
2023/05/09 06:10:42;;;;;;;6.53;5.32;;;;;;;;;;5064826;28;20056;-70
2023/05/09 06:13:07;;;;;;;6.90;5.43;;;;;;;;;;5031195;28;20087;-70
2023/05/09 06:15:35;;;;;;;7.05;5.50;;;;;;;;;;5031616;28;20021;-70
2023/05/09 06:18:01;;;;;;;9.60;6.70;;;;;;;;;;5032671;28;20042;-70
2023/05/09 06:20:26;;;;;;;9.07;7.45;;;;;;;;;;5048108;28;20031;-70
2023/05/09 06:22:52;;;;;;;11.05;7.95;;;;;;;;;;5031302;28;20116;-70
2023/05/09 06:25:19;;;;;;;11.43;8.65;;;;;;;;;;5031302;28;20025;-70
2023/05/09 06:27:45;;;;;;;8.25;6.50;;;;;;;;;;5030721;28;20095;-71
2023/05/09 06:30:11;;;;;;;8.57;6.45;;;;;;;;;;5040157;28;20035;-71
2023/05/09 06:32:38;;;;;;;6.32;5.47;;;;;;;;;;5051913;28;20110;-70
2023/05/09 06:35:04;;;;;;;6.82;5.28;;;;;;;;;;5052396;28;20545;-71
2023/05/09 06:37:33;;;;;;;6.60;4.55;;;;;;;;;;5050872;28;20040;-70
2023/05/09 06:39:59;;;;;;;7.68;5.35;;;;;;;;;;5051464;28;20032;-70
2023/05/09 06:42:25;;;;;;;6.47;4.80;;;;;;;;;;5052293;28;20055;-72
2023/05/09 06:44:50;;;;;;;5.00;4.50;;;;;;;;;;5052154;28;20074;-72
2023/05/09 06:47:16;;;;;;;6.32;5.10;;;;;;;;;;5051977;28;20033;-72
2023/05/09 06:49:42;;;;;;;5.85;5.25;;;;;;;;;;5060254;28;20028;-72
2023/05/09 06:52:09;;;;;;;8.27;6.95;;;;;;;;;;5051939;28;20060;-72
2023/05/09 06:54:34;;;;;;;10.80;9.20;;;;;;;;;;5051834;28;20032;-72
2023/05/09 06:57:00;;;;;;;10.77;9.40;;;;;;;;;;5052260;28;20040;-70
2023/05/09 06:59:26;;;;;;;10.85;9.20;;;;;;;;;;5051989;28;20478;-71
2023/05/09 07:01:52;;;;;;;12.88;9.13;;;;;;;;;;5067396;28;20040;-72
2023/05/09 07:04:17;;;;;;;6.70;5.85;;;;;;;;;;5050695;28;20099;-72
2023/05/09 07:06:43;;;;;;;7.13;5.47;;;;;;;;;;5051960;28;20037;-71
2023/05/09 07:09:09;;;;;;;8.18;5.40;;;;;;;;;;5050538;28;20033;-72
2023/05/09 07:11:35;;;;;;;6.82;5.15;;;;;;;;;;5052038;28;20478;-71
2023/05/09 07:14:02;;;;;;;7.55;6.32;;;;;;;;;;5051534;28;20054;-71
2023/05/09 07:16:28;;;;;;;6.63;5.20;;;;;;;;;;5051648;28;20041;-70
2023/05/09 07:18:55;;;;;;;4.70;3.40;;;;;;;;;;5050950;28;20332;-72
2023/05/09 07:21:21;;;;;;;7.18;4.13;;;;;;;;;;5051318;28;20182;-73
2023/05/09 07:23:47;;;;;;;5.50;3.55;;;;;;;;;;5051412;28;20062;-71
2023/05/09 07:26:13;;;;;;;9.20;4.55;;;;;;;;;;5051644;28;20040;-70
2023/05/09 07:28:39;;;;;;;6.05;3.90;;;;;;;;;;5049558;28;20383;-70
2023/05/09 07:31:05;;;;;;;6.32;3.67;;;;;;;;;;5051029;28;20124;-71
2023/05/09 07:33:31;;;;;;;4.53;3.30;;;;;;;;;;5051227;28;20032;-70
2023/05/09 07:36:00;;;;;;;5.90;3.83;;;;;;;;;;5050150;28;20127;-72
2023/05/09 07:38:25;;;;;;;5.50;3.10;;;;;;;;;;5051371;28;20149;-71
2023/05/09 07:40:54;;;;;;;4.25;3.05;;;;;;;;;;5051811;28;20444;-72
2023/05/09 07:43:19;;;;;;;7.40;4.38;;;;;;;;;;5050989;28;20509;-72
2023/05/09 07:45:45;;;;;;;4.13;3.03;;;;;;;;;;5051155;28;20028;-71
2023/05/09 07:48:12;;;;;;;5.75;3.50;;;;;;;;;;5050769;28;20021;-71
2023/05/09 07:50:38;;;;;;;5.88;3.17;;;;;;;;;;5066676;28;20045;-70
2023/05/09 07:53:04;;;;;;;5.10;3.33;;;;;;;;;;5051024;28;20573;-70
2023/05/09 07:55:30;;;;;;;7.80;3.90;;;;;;;;;;5051431;28;20380;-70
2023/05/09 07:57:56;;;;;;;7.57;4.75;;;;;;;;;;5050899;28;20464;-71
2023/05/09 08:00:22;;;;;;;8.68;5.32;;;;;;;;;;5050809;28;20090;-69
2023/05/09 08:02:51;;;;;;;8.38;5.85;;;;;;;;;;5049839;28;20036;-70
2023/05/09 08:05:17;;;;;;;9.35;6.07;;;;;;;;;;5049775;28;20451;-70
2023/05/09 08:07:45;;;;;;;9.82;6.65;;;;;;;;;;5047298;28;20025;-69
2023/05/09 08:10:11;;;;;;;11.75;5.72;;;;;;;;;;5039668;28;20545;-71
2023/05/09 08:12:37;;;;;;;15.52;7.47;;;;;;;;;;5045594;28;20030;-70
2023/05/09 08:15:05;;;;;;;12.48;6.93;;;;;;;;;;5045151;28;20104;-70
2023/05/09 08:17:30;;;;;;;14.07;6.28;;;;;;;;;;5047848;28;20016;-70
2023/05/09 08:19:56;;;;;;;15.38;6.90;;;;;;;;;;5057858;28;20029;-71
2023/05/09 08:22:22;;;;;;;10.07;6.53;;;;;;;;;;5050630;28;20417;-70
2023/05/09 08:24:47;;;;;;;11.70;7.15;;;;;;;;;;5049114;28;20041;-72
2023/05/09 08:27:14;;;;;;;12.65;6.82;;;;;;;;;;5049325;28;20041;-71
2023/05/09 08:29:40;;;;;;;9.10;6.35;;;;;;;;;;5053992;28;20056;-71
2023/05/09 08:32:06;;;;;;;8.48;6.18;;;;;;;;;;5054398;28;20032;-69
2023/05/09 08:34:33;;;;;;;16.60;7.10;;;;;;;;;;5054942;28;20498;-71
2023/05/09 08:37:03;;;;;;;16.27;6.57;;;;;;;;;;5070434;28;20020;-71
2023/05/09 08:39:29;;;;;;;13.15;6.00;;;;;;;;;;5054969;28;20159;-71
2023/05/09 08:41:59;;;;;;;12.57;7.07;;;;;;;;;;5054913;28;20025;-71
2023/05/09 08:44:26;;;;;;;11.20;6.05;;;;;;;;;;5055047;28;20098;-73
2023/05/09 08:47:00;;;;;;;12.25;6.80;;;;;;;;;;5050923;28;20017;-72
2023/05/09 08:49:26;;;;;;;13.23;8.25;;;;;;;;;;5049967;28;20079;-72
2023/05/09 08:51:53;;;;;;;18.77;8.68;;;;;;;;;;5054143;28;20159;-71
2023/05/09 08:54:22;;;;;;;14.48;6.85;;;;;;;;;;5052353;28;20467;-71
2023/05/09 08:56:47;;;;;;;14.70;7.85;;;;;;;;;;5054277;28;20029;-71
2023/05/09 08:59:15;;;;;;;14.95;8.25;;;;;;;;;;5054275;28;20060;-72
2023/05/09 09:01:41;;;;;;;10.88;6.50;;;;;;;;;;5054209;28;20025;-70
2023/05/09 09:04:07;;;;;;;20.70;7.85;;;;;;;;;;5054513;28;20080;-71
2023/05/09 09:06:34;;;;;;;9.40;5.72;;;;;;;;;;5053868;28;20518;-71
2023/05/09 09:09:00;;;;;;;14.88;6.72;;;;;;;;;;5054022;28;20106;-71
2023/05/09 09:11:27;;;;;;;15.18;7.93;;;;;;;;;;5054275;28;20415;-71
2023/05/09 09:13:57;;;;;;;14.38;7.45;;;;;;;;;;5054138;28;20029;-71
2023/05/09 09:16:24;;;;;;;13.07;6.60;;;;;;;;;;5054351;28;20052;-72
2023/05/09 09:18:54;;;;;;;14.95;7.25;;;;;;;;;;5052238;28;20021;-73
2023/05/09 09:21:22;;;;;;;13.88;7.35;;;;;;;;;;5045597;28;20036;-71
2023/05/09 09:23:48;;;;;;;11.43;7.22;;;;;;;;;;5054061;28;20025;-71
2023/05/09 09:26:15;;;;;;;14.30;7.88;;;;;;;;;;5053601;28;20033;-71
2023/05/09 09:28:42;;;;;;;12.98;7.40;;;;;;;;;;5052471;28;20021;-72
2023/05/09 09:31:24;;;;;;;18.73;8.52;;;;;;;;;;5052972;28;20056;-72
2023/05/09 09:33:50;;;;;;;13.32;7.82;;;;;;;;;;5053895;28;20088;-70
2023/05/09 09:36:25;;;;;;;14.32;6.38;;;;;;;;;;5054053;28;20043;-71
2023/05/09 09:38:57;;;;;;;12.15;6.50;;;;;;;;;;5053427;28;20033;-71
2023/05/09 09:41:38;;;;;;;15.20;7.88;;;;;;;;;;5052633;28;20131;-71
2023/05/09 09:44:11;;;;;;;9.00;6.55;;;;;;;;;;5053500;28;20414;-73
2023/05/09 09:46:49;;;;;;;10.83;7.47;;;;;;;;;;5053793;28;20041;-70
2023/05/09 09:49:19;;;;;;;16.55;7.95;;;;;;;;;;5047684;28;20282;-71
2023/05/09 09:51:55;;;;;;;12.20;7.20;;;;;;;;;;5032712;28;20107;-71
2023/05/09 09:54:22;;;;;;;11.15;6.03;;;;;;;;;;5032490;28;20120;-72
2023/05/09 09:56:50;;;;;;;8.48;5.82;;;;;;;;;;5032890;28;20032;-71
2023/05/09 09:59:22;;;;;;;8.02;5.88;;;;;;;;;;5033628;28;20041;-71
2023/05/09 10:02:05;;;;;;;13.93;7.18;;;;;;;;;;5033536;28;20123;-71
2023/05/09 10:04:33;;;;;;;12.80;7.05;;;;;;;;;;5033649;28;20033;-71
2023/05/09 10:07:09;;;;;;;9.93;7.15;;;;;;;;;;5033606;28;20079;-71
2023/05/09 10:09:39;;;;;;;6.78;4.60;;;;;;;;;;5033554;28;20116;-70
2023/05/09 10:12:07;;;;;;;9.48;6.82;;;;;;;;;;5033574;28;20037;-72
2023/05/09 10:14:35;;;;;;;9.90;6.13;;;;;;;;;;5033954;28;20029;-73
2023/05/09 10:17:03;;;;;;;13.85;7.07;;;;;;;;;;5033371;28;20033;-72
2023/05/09 10:19:30;;;;;;;11.80;6.00;;;;;;;;;;5033091;28;20041;-72
2023/05/09 10:22:03;;;;;;;11.00;6.82;;;;;;;;;;5033371;28;20037;-71
2023/05/09 10:24:34;;;;;;;7.28;4.82;;;;;;;;;;5015485;28;20124;-71
2023/05/09 10:27:05;;;;;;;12.55;6.97;;;;;;;;;;5033003;28;20468;-72
2023/05/09 10:29:46;;;;;;;13.20;6.15;;;;;;;;;;5033272;28;20391;-73
2023/05/09 10:32:22;;;;;;;12.05;6.55;;;;;;;;;;5034077;28;20057;-71
2023/05/09 10:34:52;;;;;;;8.75;5.70;;;;;;;;;;5033732;28;20030;-72
2023/05/09 10:37:20;;;;;;;11.02;5.57;;;;;;;;;;5032978;28;20022;-70
2023/05/09 10:39:51;;;;;;;11.77;6.68;;;;;;;;;;5033229;28;20045;-70
2023/05/09 10:42:18;;;;;;;11.18;6.68;;;;;;;;;;5032744;28;20030;-73
2023/05/09 10:44:45;;;;;;;11.68;6.57;;;;;;;;;;5032985;28;20081;-71
2023/05/09 10:47:13;;;;;;;11.23;6.38;;;;;;;;;;5032974;28;20033;-71
2023/05/09 10:49:39;;;;;;;10.60;6.05;;;;;;;;;;5032678;28;20017;-69
2023/05/09 10:52:05;;;;;;;11.73;6.95;;;;;;;;;;5033799;28;20029;-72
2023/05/09 10:54:32;;;;;;;11.07;6.50;;;;;;;;;;5032515;28;20422;-70
2023/05/09 10:56:59;;;;;;;10.60;6.47;;;;;;;;;;5032638;28;20037;-73
2023/05/09 10:59:37;;;;;;;11.10;6.95;;;;;;;;;;5032741;28;20049;-71
2023/05/09 11:02:04;;;;;;;8.95;6.15;;;;;;;;;;5032917;28;20041;-71
2023/05/09 11:04:31;;;;;;;12.52;6.50;;;;;;;;;;5033051;28;20108;-72
2023/05/09 11:06:59;;;;;;;11.98;6.70;;;;;;;;;;5040252;28;20032;-71
2023/05/09 11:09:37;;;;;;;11.85;6.90;;;;;;;;;;5051271;28;20102;-72
2023/05/09 11:12:07;;;;;;;9.60;5.78;;;;;;;;;;5052735;28;20135;-71
2023/05/09 11:14:36;;;;;;;10.18;6.28;;;;;;;;;;5052444;28;20032;-72
2023/05/09 11:17:21;;;;;;;10.15;6.85;;;;;;;;;;5052358;28;20024;-71
2023/05/09 11:19:47;;;;;;;10.27;5.70;;;;;;;;;;5052418;28;20045;-74
2023/05/09 11:22:19;;;;;;;10.65;5.82;;;;;;;;;;5052436;28;20033;-72
2023/05/09 11:24:52;;;;;;;11.73;6.90;;;;;;;;;;5051391;28;20119;-71
2023/05/09 11:27:21;;;;;;;12.55;6.63;;;;;;;;;;5048000;28;20060;-71
2023/05/09 11:29:57;;;;;;;12.65;6.70;;;;;;;;;;5040780;28;20061;-72
2023/05/09 11:32:39;;;;;;;12.52;7.28;;;;;;;;;;5056315;28;20443;-73
2023/05/09 11:35:27;;;;;;;10.40;6.40;;;;;;;;;;5045497;28;20479;-71
2023/05/09 11:38:01;;;;;;;15.75;6.65;;;;;;;;;;5048328;28;20025;-70
2023/05/09 11:40:29;;;;;;;11.93;7.03;;;;;;;;;;5042637;28;20032;-69
2023/05/09 11:42:56;;;;;;;13.88;6.22;;;;;;;;;;5041264;28;20040;-71
2023/05/09 11:45:29;;;;;;;11.18;6.13;;;;;;;;;;5050492;28;20045;-71
2023/05/09 11:47:59;;;;;;;11.85;5.05;;;;;;;;;;5046076;28;20049;-72
2023/05/09 11:50:25;;;;;;;13.60;6.55;;;;;;;;;;5061740;28;20066;-71
2023/05/09 11:52:53;;;;;;;9.35;5.90;;;;;;;;;;5044366;28;20067;-71
2023/05/09 11:55:24;;;;;;;9.63;6.38;;;;;;;;;;5064486;28;20037;-70
2023/05/09 11:57:52;;;;;;;11.30;6.07;;;;;;;;;;5047765;28;20025;-72
2023/05/09 12:00:19;;;;;;;7.70;5.85;;;;;;;;;;5051611;28;20048;-71
2023/05/09 12:02:46;;;;;;;12.55;6.10;;;;;;;;;;5049438;28;20032;-71
2023/05/09 12:05:17;;;;;;;12.60;6.32;;;;;;;;;;5044939;28;20032;-71
2023/05/09 12:07:44;;;;;;;13.85;5.97;;;;;;;;;;5042313;28;20029;-72
2023/05/09 12:10:12;;;;;;;15.13;6.45;;;;;;;;;;5043653;28;20471;-72
2023/05/09 12:12:47;;;;;;;9.15;5.93;;;;;;;;;;5044612;28;20117;-72
2023/05/09 12:15:13;;;;;;;11.23;6.10;;;;;;;;;;5043520;28;20041;-68
2023/05/09 12:17:40;;;;;;;11.02;6.07;;;;;;;;;;5045476;28;20017;-71
2023/05/09 12:20:07;;;;;;;9.95;5.78;;;;;;;;;;5044147;28;20036;-72
2023/05/09 12:22:33;;;;;;;12.38;6.43;;;;;;;;;;5052192;28;20578;-70
2023/05/09 12:25:00;;;;;;;9.65;5.95;;;;;;;;;;5051576;28;20120;-70
2023/05/09 12:27:27;;;;;;;9.43;6.07;;;;;;;;;;5042440;28;20117;-70
2023/05/09 12:29:54;;;;;;;12.73;5.80;;;;;;;;;;5046462;28;20035;-71
2023/05/09 12:32:22;;;;;;;10.30;5.85;;;;;;;;;;5047337;28;20021;-70
2023/05/09 12:34:48;;;;;;;10.73;5.60;;;;;;;;;;5045577;28;20478;-71
2023/05/09 12:37:18;;;;;;;10.75;5.78;;;;;;;;;;5043134;28;20487;-70
2023/05/09 12:39:58;;;;;;;9.60;5.65;;;;;;;;;;5043081;28;20037;-72
2023/05/09 12:42:30;;;;;;;8.05;5.50;;;;;;;;;;5046965;28;20123;-71
2023/05/09 12:44:56;;;;;;;13.02;6.03;;;;;;;;;;5046592;28;20187;-72
2023/05/09 12:47:26;;;;;;;12.88;5.75;;;;;;;;;;5043828;28;20021;-73
2023/05/09 12:49:57;;;;;;;8.23;5.20;;;;;;;;;;5057351;28;20523;-72
2023/05/09 12:52:22;;;;;;;10.30;5.30;;;;;;;;;;5044316;28;20037;-70
2023/05/09 12:54:48;;;;;;;14.23;5.95;;;;;;;;;;5065742;28;20159;-70
2023/05/09 12:57:23;;;;;;;9.77;6.22;;;;;;;;;;5046176;28;20343;-71
2023/05/09 12:59:49;;;;;;;9.35;4.53;;;;;;;;;;5041455;28;20402;-70
2023/05/09 13:02:15;;;;;;;7.05;4.90;;;;;;;;;;5066735;28;20043;-73
2023/05/09 13:04:41;;;;;;;8.85;4.70;;;;;;;;;;5051340;28;20064;-70
2023/05/09 13:07:10;;;;;;;8.82;5.05;;;;;;;;;;5060038;28;20056;-69
2023/05/09 13:09:53;;;;;;;10.32;5.82;;;;;;;;;;5046630;28;20487;-69
2023/05/09 13:12:19;;;;;;;11.30;6.05;;;;;;;;;;5044634;28;20032;-70
2023/05/09 13:14:45;;;;;;;10.88;5.63;;;;;;;;;;5043735;28;20367;-71
2023/05/09 13:17:10;;;;;;;10.75;5.68;;;;;;;;;;5068223;28;20533;-72
2023/05/09 13:19:38;;;;;;;7.43;5.18;;;;;;;;;;5046769;28;20029;-71
2023/05/09 13:22:04;;;;;;;13.15;5.78;;;;;;;;;;5049320;28;20612;-70
2023/05/09 13:24:29;;;;;;;9.60;6.28;;;;;;;;;;5042182;28;20132;-70
2023/05/09 13:26:55;;;;;;;11.35;5.60;;;;;;;;;;5033908;28;20032;-72
2023/05/09 13:29:21;;;;;;;10.95;6.05;;;;;;;;;;5034152;28;20031;-71
2023/05/09 13:31:46;;;;;;;7.80;4.70;;;;;;;;;;5049869;28;20045;-72
2023/05/09 13:34:12;;;;;;;9.30;5.80;;;;;;;;;;5049480;28;20021;-72
2023/05/09 13:36:38;;;;;;;14.18;5.60;;;;;;;;;;5049570;28;20491;-71
2023/05/09 13:39:04;;;;;;;10.02;5.60;;;;;;;;;;5033601;28;20462;-72
2023/05/09 13:41:30;;;;;;;11.52;5.85;;;;;;;;;;5049268;28;20091;-71
2023/05/09 13:43:56;;;;;;;9.63;5.40;;;;;;;;;;5034193;28;20034;-72
2023/05/09 13:46:22;;;;;;;9.52;5.15;;;;;;;;;;5049244;28;20568;-71
2023/05/09 13:48:48;;;;;;;10.00;4.07;;;;;;;;;;5033930;28;20030;-72
2023/05/09 13:51:13;;;;;;;7.55;4.57;;;;;;;;;;5033614;28;20099;-72
2023/05/09 13:53:39;;;;;;;11.23;5.80;;;;;;;;;;5033812;28;20026;-73
2023/05/09 13:56:08;;;;;;;12.77;5.13;;;;;;;;;;5034238;28;20454;-73
2023/05/09 13:58:34;;;;;;;10.48;5.45;;;;;;;;;;5032147;28;20026;-73
2023/05/09 14:01:00;;;;;;;11.13;5.63;;;;;;;;;;5049011;28;20635;-72
2023/05/09 14:03:26;;;;;;;15.70;5.05;;;;;;;;;;5059334;28;20413;-71
2023/05/09 14:05:52;;;;;;;10.38;5.50;;;;;;;;;;5046549;28;20075;-73
2023/05/09 14:08:17;;;;;;;7.53;4.72;;;;;;;;;;5045506;28;20025;-74
2023/05/09 14:10:43;;;;;;;8.80;5.15;;;;;;;;;;5047081;28;20048;-73
2023/05/09 14:13:09;;;;;;;8.65;4.80;;;;;;;;;;5044165;28;20059;-73
2023/05/09 14:15:35;;;;;;;11.52;5.25;;;;;;;;;;5046990;28;20025;-73
2023/05/09 14:18:01;;;;;;;10.57;5.72;;;;;;;;;;5046832;28;21176;-72
2023/05/09 14:20:27;;;;;;;9.18;5.10;;;;;;;;;;5063228;28;20064;-74
2023/05/09 14:22:54;;;;;;;9.18;4.85;;;;;;;;;;5047115;28;20120;-73
2023/05/09 14:25:21;;;;;;;11.07;6.18;;;;;;;;;;5045896;28;20112;-72
2023/05/09 14:27:47;;;;;;;10.90;5.43;;;;;;;;;;5043221;28;20391;-74
2023/05/09 14:30:13;;;;;;;9.02;5.30;;;;;;;;;;5045756;28;20032;-73
2023/05/09 14:32:38;;;;;;;7.40;5.80;;;;;;;;;;5046735;28;20408;-73
2023/05/09 14:35:04;;;;;;;8.98;5.45;;;;;;;;;;5044926;28;20348;-73
2023/05/09 14:37:30;;;;;;;11.05;5.22;;;;;;;;;;5037513;28;20059;-73
2023/05/09 14:39:56;;;;;;;6.47;5.00;;;;;;;;;;5040048;28;20036;-72
2023/05/09 14:42:21;;;;;;;6.55;4.85;;;;;;;;;;5039383;28;20029;-72